createdAt,value
2017-05-24T00:00:09.546Z,19.98
2017-05-24T00:01:19.898Z,19.98
2017-05-24T00:02:30.308Z,19.98
2017-05-24T00:03:40.334Z,19.92
2017-05-24T00:04:50.048Z,19.95
2017-05-24T00:06:00.087Z,19.97
2017-05-24T00:07:10.141Z,19.98
2017-05-24T00:08:20.507Z,19.92
2017-05-24T00:09:30.859Z,19.93
2017-05-24T00:10:41.217Z,19.98
2017-05-24T00:11:51.565Z,20
2017-05-24T00:13:01.606Z,19.98
2017-05-24T00:14:11.953Z,19.92
2017-05-24T00:15:22.311Z,19.93
2017-05-24T00:16:32.655Z,19.95
2017-05-24T00:17:42.998Z,20.02
2017-05-24T00:18:53.338Z,19.79
2017-05-24T00:20:03.696Z,19.87
2017-05-24T00:21:13.743Z,19.85
2017-05-24T00:22:23.799Z,19.86
2017-05-24T00:23:34.196Z,19.85
2017-05-24T00:24:44.543Z,19.85
2017-05-24T00:25:54.576Z,19.86
2017-05-24T00:27:04.918Z,19.78
2017-05-24T00:28:15.276Z,19.72
2017-05-24T00:29:25.670Z,19.67
2017-05-24T00:30:35.718Z,19.74
2017-05-24T00:31:45.751Z,19.64
2017-05-24T00:32:55.792Z,19.72
2017-05-24T00:34:06.163Z,19.65
2017-05-24T00:35:16.552Z,19.68
2017-05-24T00:36:26.900Z,19.65
2017-05-24T00:37:37.254Z,19.72
2017-05-24T00:38:47.610Z,19.78
2017-05-24T00:39:57.647Z,19.72
2017-05-24T00:41:08.055Z,19.67
2017-05-24T00:42:18.419Z,19.7
2017-05-24T00:43:28.752Z,19.74
2017-05-24T00:44:39.107Z,19.68
2017-05-24T00:45:49.470Z,19.63
2017-05-24T00:46:59.830Z,19.65
2017-05-24T00:48:10.185Z,19.7
2017-05-24T00:49:20.776Z,19.63
2017-05-24T00:50:31.117Z,19.6
2017-05-24T00:51:41.460Z,19.57
2017-05-24T00:52:51.792Z,19.52
2017-05-24T00:54:01.845Z,19.56
2017-05-24T00:55:12.204Z,19.5
2017-05-24T00:56:22.239Z,19.43
2017-05-24T00:57:32.283Z,19.5
2017-05-24T00:58:42.374Z,19.47
2017-05-24T00:59:52.743Z,19.32
2017-05-24T01:01:03.118Z,19.43
2017-05-24T01:02:13.470Z,19.31
2017-05-24T01:03:23.520Z,19.24
2017-05-24T01:04:33.618Z,19.24
2017-05-24T01:05:43.652Z,19.2
2017-05-24T01:06:53.994Z,19.15
2017-05-24T01:08:04.348Z,19.07
2017-05-24T01:09:14.396Z,19.15
2017-05-24T01:10:24.789Z,19.1
2017-05-24T01:11:35.135Z,19.09
2017-05-24T01:12:45.476Z,19.12
2017-05-24T01:13:55.521Z,19.07
2017-05-24T01:15:05.551Z,19.1
2017-05-24T01:16:15.941Z,19.12
2017-05-24T01:17:26.302Z,19.09
2017-05-24T01:18:36.347Z,19.09
2017-05-24T01:19:46.702Z,19.06
2017-05-24T01:20:57.051Z,19.06
2017-05-24T01:22:07.395Z,18.99
2017-05-24T01:23:17.748Z,19
2017-05-24T01:24:27.788Z,19.06
2017-05-24T01:25:37.830Z,19.06
2017-05-24T01:26:47.867Z,19.16
2017-05-24T01:27:58.213Z,19.13
2017-05-24T01:29:07.946Z,19.06
2017-05-24T01:30:18.289Z,19.09
2017-05-24T01:31:28.338Z,19.13
2017-05-24T01:32:38.686Z,19.07
2017-05-24T01:33:49.091Z,19.06
2017-05-24T01:34:59.432Z,19
2017-05-24T01:36:09.787Z,19.09
2017-05-24T01:37:20.198Z,19
2017-05-24T01:38:30.540Z,19.09
2017-05-24T01:39:40.586Z,19.1
2017-05-24T01:40:50.630Z,19.05
2017-05-24T01:42:00.988Z,19.12
2017-05-24T01:43:11.343Z,19
2017-05-24T01:44:21.710Z,19.12
2017-05-24T01:45:31.749Z,19.12
2017-05-24T01:46:42.100Z,19.12
2017-05-24T01:47:52.134Z,19.12
2017-05-24T01:49:01.861Z,19.17
2017-05-24T01:50:12.222Z,19.09
2017-05-24T01:51:22.279Z,19.17
2017-05-24T01:52:32.623Z,19.09
2017-05-24T01:53:42.962Z,19.2
2017-05-24T01:54:53.307Z,19.23
2017-05-24T01:56:03.651Z,19.24
2017-05-24T01:57:14.010Z,19.24
2017-05-24T01:58:24.345Z,19.23
2017-05-24T01:59:34.689Z,19.27
2017-05-24T02:00:44.787Z,19.31
2017-05-24T02:01:55.337Z,19.37
2017-05-24T02:03:05.697Z,19.32
2017-05-24T02:04:16.046Z,19.32
2017-05-24T02:05:26.394Z,19.32
2017-05-24T02:06:36.746Z,19.43
2017-05-24T02:07:46.774Z,19.32
2017-05-24T02:08:57.182Z,19.47
2017-05-24T02:10:07.250Z,19.53
2017-05-24T02:11:17.608Z,19.47
2017-05-24T02:12:27.959Z,19.64
2017-05-24T02:13:38.307Z,19.65
2017-05-24T02:14:48.407Z,19.79
2017-05-24T02:15:58.761Z,19.98
2017-05-24T02:17:09.127Z,20.05
2017-05-24T02:18:19.175Z,20.2
2017-05-24T02:19:28.938Z,20.22
2017-05-24T02:20:39.448Z,20.4
2017-05-24T02:21:49.804Z,20.44
2017-05-24T02:23:00.196Z,20.57
2017-05-24T02:24:10.548Z,20.72
2017-05-24T02:25:20.890Z,20.81
2017-05-24T02:26:31.289Z,20.96
2017-05-24T02:27:41.340Z,20.9
2017-05-24T02:28:51.075Z,21.09
2017-05-24T02:30:01.438Z,21.12
2017-05-24T02:31:11.797Z,21.15
2017-05-24T02:32:22.151Z,20.91
2017-05-24T02:33:32.489Z,20.96
2017-05-24T02:34:42.840Z,20.79
2017-05-24T02:35:52.870Z,20.71
2017-05-24T02:37:03.211Z,20.54
2017-05-24T02:38:13.637Z,20.48
2017-05-24T02:39:23.370Z,20.35
2017-05-24T02:40:33.416Z,20.27
2017-05-24T02:41:43.817Z,20.05
2017-05-24T02:42:54.162Z,19.95
2017-05-24T02:44:04.206Z,19.79
2017-05-24T02:45:14.561Z,19.64
2017-05-24T02:46:24.915Z,19.47
2017-05-24T02:47:35.262Z,19.32
2017-05-24T02:48:45.596Z,19.24
2017-05-24T02:49:55.369Z,19.16
2017-05-24T02:51:05.097Z,18.97
2017-05-24T02:52:15.456Z,18.9
2017-05-24T02:53:25.807Z,18.87
2017-05-24T02:54:36.157Z,18.74
2017-05-24T02:55:46.516Z,18.78
2017-05-24T02:56:56.866Z,18.72
2017-05-24T02:58:06.892Z,18.65
2017-05-24T02:59:17.252Z,18.59
2017-05-24T03:00:27.608Z,18.63
2017-05-24T03:01:37.961Z,18.49
2017-05-24T03:33:06.757Z,16.26
2017-05-24T03:34:17.093Z,16.3
2017-05-24T03:35:27.109Z,16.29
2017-05-24T03:36:37.140Z,16.32
2017-05-24T03:37:47.484Z,16.44
2017-05-24T03:38:57.823Z,16.44
2017-05-24T03:40:08.159Z,16.57
2017-05-24T03:41:18.205Z,16.67
2017-05-24T03:42:28.538Z,16.88
2017-05-24T03:43:38.877Z,16.99
2017-05-24T03:44:49.281Z,17.06
2017-05-24T03:45:59.692Z,17.39
2017-05-24T03:47:10.044Z,17.45
2017-05-24T03:48:20.389Z,17.63
2017-05-24T03:49:30.744Z,17.76
2017-05-24T03:50:41.081Z,17.99
2017-05-24T03:51:51.431Z,18.17
2017-05-24T03:53:01.835Z,18.24
2017-05-24T03:54:12.201Z,18.36
2017-05-24T03:55:22.543Z,18.51
2017-05-24T03:56:32.874Z,18.56
2017-05-24T03:57:43.207Z,18.68
2017-05-24T03:58:53.553Z,18.79
2017-05-24T04:00:03.594Z,18.91
2017-05-24T04:01:13.940Z,19.02
2017-05-24T04:02:24.297Z,19.1
2017-05-24T04:03:34.669Z,19.24
2017-05-24T04:04:44.703Z,19.24
2017-05-24T04:05:55.052Z,19.31
2017-05-24T04:07:05.402Z,19.37
2017-05-24T04:08:15.765Z,19.38
2017-05-24T04:09:26.120Z,19.46
2017-05-24T04:10:36.155Z,19.52
2017-05-24T04:11:46.513Z,19.64
2017-05-24T04:12:56.868Z,19.78
2017-05-24T04:14:07.158Z,19.79
2017-05-24T04:15:17.494Z,19.85
2017-05-24T04:16:27.838Z,19.85
2017-05-24T04:17:37.871Z,19.95
2017-05-24T04:18:47.915Z,19.93
2017-05-24T04:19:58.323Z,20
2017-05-24T04:21:08.657Z,20.05
2017-05-24T04:22:19.004Z,20.11
2017-05-24T04:23:29.038Z,20.05
2017-05-24T04:24:39.393Z,20.1
2017-05-24T04:25:49.800Z,20.18
2017-05-24T04:27:00.152Z,20.19
2017-05-24T04:28:10.187Z,20.26
2017-05-24T04:29:19.911Z,20.18
2017-05-24T04:30:30.329Z,20.19
2017-05-24T04:31:40.108Z,20.25
2017-05-24T04:32:50.142Z,20.2
2017-05-24T04:34:00.188Z,20.25
2017-05-24T04:35:10.533Z,20.22
2017-05-24T04:36:20.871Z,20.32
2017-05-24T04:37:31.281Z,20.4
2017-05-24T04:38:41.317Z,20.26
2017-05-24T04:39:51.675Z,20.3
2017-05-24T04:41:01.726Z,20.34
2017-05-24T04:42:12.098Z,20.29
2017-05-24T04:43:22.508Z,20.22
2017-05-24T04:44:32.548Z,20.18
2017-05-24T04:45:42.592Z,20.07
2017-05-24T04:46:53.015Z,20.05
2017-05-24T04:48:03.367Z,20.02
2017-05-24T04:49:13.090Z,20.01
2017-05-24T04:50:23.444Z,20
2017-05-24T04:51:33.797Z,19.98
2017-05-24T04:52:43.825Z,20.01
2017-05-24T04:53:54.166Z,20.12
2017-05-24T04:55:04.499Z,20.16
2017-05-24T04:56:14.221Z,20.18
2017-05-24T04:57:24.617Z,20.26
2017-05-24T04:58:34.972Z,20.37
2017-05-24T04:59:45.315Z,20.46
2017-05-24T05:00:55.346Z,20.49
2017-05-24T05:02:05.699Z,20.56
2017-05-24T05:03:16.076Z,20.6
2017-05-24T05:04:26.414Z,20.64
2017-05-24T05:05:36.806Z,20.72
2017-05-24T05:06:47.145Z,20.64
2017-05-24T05:07:57.187Z,20.74
2017-05-24T05:09:07.544Z,20.76
2017-05-24T05:10:17.942Z,20.85
2017-05-24T05:11:28.282Z,20.9
2017-05-24T05:12:38.316Z,20.93
2017-05-24T05:13:48.421Z,21
2017-05-24T05:14:58.139Z,21.04
2017-05-24T05:16:08.243Z,21.18
2017-05-24T05:17:18.601Z,21.19
2017-05-24T05:18:28.935Z,21.36
2017-05-24T05:19:38.968Z,21.46
2017-05-24T05:20:49.011Z,21.41
2017-05-24T05:21:59.414Z,21.52
2017-05-24T05:23:09.460Z,21.67
2017-05-24T05:24:19.812Z,21.76
2017-05-24T05:25:30.163Z,21.82
2017-05-24T05:26:40.567Z,21.82
2017-05-24T05:27:50.908Z,21.82
2017-05-24T05:29:00.944Z,21.94
2017-05-24T05:30:11.286Z,21.96
2017-05-24T05:31:21.651Z,22.07
2017-05-24T05:32:32.035Z,22.08
2017-05-24T05:33:42.078Z,22.18
2017-05-24T05:34:52.431Z,22.12
2017-05-24T05:36:02.792Z,22.18
2017-05-24T05:37:13.157Z,22.29
2017-05-24T05:38:22.880Z,22.29
2017-05-24T05:39:33.293Z,22.39
2017-05-24T05:40:43.637Z,22.45
2017-05-24T05:41:53.995Z,22.55
2017-05-24T05:43:03.722Z,22.71
2017-05-24T05:44:14.119Z,22.64
2017-05-24T05:45:24.158Z,22.71
2017-05-24T05:46:34.509Z,22.75
2017-05-24T05:47:44.846Z,22.73
2017-05-24T05:48:55.249Z,22.78
2017-05-24T05:50:05.290Z,22.79
2017-05-24T05:51:15.631Z,22.89
2017-05-24T05:52:25.991Z,22.91
2017-05-24T05:53:36.044Z,23.07
2017-05-24T05:54:46.410Z,23.12
2017-05-24T05:55:56.440Z,23.24
2017-05-24T05:57:06.806Z,23.28
2017-05-24T05:58:17.165Z,23.48
2017-05-24T05:59:27.525Z,23.47
2017-05-24T06:00:37.557Z,23.57
2017-05-24T06:01:47.916Z,23.59
2017-05-24T06:02:58.313Z,23.66
2017-05-24T06:04:08.655Z,23.64
2017-05-24T06:05:18.714Z,23.78
2017-05-24T06:06:29.070Z,23.82
2017-05-24T06:07:39.426Z,24.03
2017-05-24T06:08:49.853Z,24.09
2017-05-24T06:10:03.175Z,24.33
2017-05-24T06:11:19.532Z,24.55
2017-05-24T06:12:35.498Z,24.71
2017-05-24T06:13:50.460Z,24.86
2017-05-24T06:15:00.863Z,24.86
2017-05-24T06:16:11.461Z,24.9
2017-05-24T06:17:21.810Z,24.85
2017-05-24T06:18:31.852Z,24.82
2017-05-24T06:19:42.260Z,24.83
2017-05-24T06:20:52.309Z,25.02
2017-05-24T06:22:02.679Z,25.33
2017-05-24T06:23:13.119Z,25.62
2017-05-24T06:24:23.179Z,25.79
2017-05-24T06:25:33.621Z,26.26
2017-05-24T06:26:44.036Z,26.68
2017-05-24T06:27:54.449Z,27.21
2017-05-24T06:29:05.054Z,27.74
2017-05-24T06:30:15.431Z,28.3
2017-05-24T06:31:25.533Z,28.43
2017-05-24T06:32:35.930Z,28.49
2017-05-24T06:33:46.241Z,28.91
2017-05-24T06:34:56.872Z,29.32
2017-05-24T06:36:06.943Z,29.47
2017-05-24T06:37:16.690Z,29.36
2017-05-24T06:38:26.788Z,29.01
2017-05-24T06:39:37.186Z,28.61
2017-05-24T06:40:47.568Z,28.14
2017-05-24T06:41:57.625Z,27.59
2017-05-24T06:43:08.015Z,27.05
2017-05-24T06:44:18.391Z,26.42
2017-05-24T06:45:28.757Z,26.03
2017-05-24T06:46:39.120Z,25.75
2017-05-24T06:47:49.200Z,25.54
2017-05-24T06:48:59.653Z,25.27
2017-05-24T06:50:10.012Z,24.97
2017-05-24T06:51:20.426Z,24.92
2017-05-24T06:52:30.798Z,24.9
2017-05-24T06:53:41.209Z,24.93
2017-05-24T06:54:51.644Z,24.86
2017-05-24T06:56:01.396Z,24.94
2017-05-24T06:57:11.772Z,25.02
2017-05-24T06:58:22.178Z,25.14
2017-05-24T06:59:32.563Z,25.3
2017-05-24T07:00:42.946Z,25.42
2017-05-24T07:01:53.300Z,25.6
2017-05-24T07:03:03.791Z,25.82
2017-05-24T07:04:13.858Z,25.97
2017-05-24T07:05:24.232Z,26.38
2017-05-24T07:06:34.626Z,26.57
2017-05-24T07:07:45.018Z,26.78
2017-05-24T07:08:55.409Z,26.86
2017-05-24T07:10:05.771Z,26.76
2017-05-24T07:11:16.381Z,26.54
2017-05-24T07:12:26.736Z,26.22
2017-05-24T07:13:37.120Z,26
2017-05-24T07:14:47.600Z,25.71
2017-05-24T07:15:57.963Z,25.59
2017-05-24T07:17:08.344Z,25.48
2017-05-24T07:18:18.759Z,25.52
2017-05-24T07:19:29.129Z,25.54
2017-05-24T07:20:39.489Z,25.51
2017-05-24T07:21:49.547Z,25.52
2017-05-24T07:22:59.587Z,25.6
2017-05-24T07:24:09.699Z,25.82
2017-05-24T07:25:20.062Z,25.91
2017-05-24T07:26:30.417Z,26.12
2017-05-24T07:27:40.461Z,26.27
2017-05-24T07:28:50.819Z,26.45
2017-05-24T07:30:01.235Z,26.6
2017-05-24T07:31:11.602Z,26.67
2017-05-24T07:32:21.659Z,26.64
2017-05-24T07:33:32.030Z,26.68
2017-05-24T07:34:42.402Z,26.94
2017-05-24T07:35:52.832Z,27.12
2017-05-24T07:37:02.879Z,27.11
2017-05-24T07:38:13.265Z,27.05
2017-05-24T07:39:23.647Z,26.84
2017-05-24T07:40:33.698Z,26.6
2017-05-24T07:41:43.749Z,26.32
2017-05-24T07:42:54.114Z,26.17
2017-05-24T07:44:04.454Z,25.97
2017-05-24T07:45:14.820Z,25.67
2017-05-24T07:46:25.195Z,25.33
2017-05-24T07:47:35.647Z,25
2017-05-24T07:48:46.034Z,24.86
2017-05-24T07:49:56.409Z,24.85
2017-05-24T07:51:06.772Z,24.9
2017-05-24T07:52:17.125Z,25
2017-05-24T07:53:27.548Z,25.3
2017-05-24T07:54:37.594Z,25.56
2017-05-24T07:55:47.965Z,25.71
2017-05-24T07:56:58.338Z,25.76
2017-05-24T07:58:08.392Z,25.91
2017-05-24T07:59:18.950Z,26.03
2017-05-24T08:00:29.324Z,26.32
2017-05-24T08:01:39.689Z,26.5
2017-05-24T08:02:50.077Z,26.78
2017-05-24T08:04:00.451Z,27.08
2017-05-24T08:05:10.546Z,27.37
2017-05-24T08:06:20.597Z,27.68
2017-05-24T08:07:30.956Z,27.79
2017-05-24T08:08:41.329Z,28.01
2017-05-24T08:09:51.711Z,28.09
2017-05-24T08:11:02.130Z,28.12
2017-05-24T08:12:12.482Z,28.21
2017-05-24T08:13:22.537Z,28.21
2017-05-24T08:14:32.894Z,28.01
2017-05-24T08:15:43.322Z,27.87
2017-05-24T08:16:53.709Z,27.69
2017-05-24T08:18:03.446Z,27.79
2017-05-24T08:19:13.823Z,27.9
2017-05-24T08:20:24.393Z,27.9
2017-05-24T08:21:34.775Z,28.14
2017-05-24T08:22:44.873Z,28.01
2017-05-24T08:23:55.237Z,27.87
2017-05-24T08:25:05.614Z,27.99
2017-05-24T08:26:15.988Z,27.89
2017-05-24T08:27:26.044Z,27.86
2017-05-24T08:28:36.088Z,27.83
2017-05-24T08:29:46.470Z,27.72
2017-05-24T08:30:56.832Z,27.9
2017-05-24T08:32:07.198Z,28.17
2017-05-24T08:33:17.259Z,28.27
2017-05-24T08:34:27.695Z,28.09
2017-05-24T08:35:38.094Z,27.84
2017-05-24T08:36:48.396Z,28.05
2017-05-24T08:37:58.761Z,28.39
2017-05-24T08:39:09.181Z,28.85
2017-05-24T08:40:19.565Z,28.85
2017-05-24T08:41:29.945Z,29.21
2017-05-24T08:42:40.297Z,29.28
2017-05-24T08:43:50.664Z,29.23
2017-05-24T08:45:01.041Z,29.24
2017-05-24T08:46:11.430Z,29.36
2017-05-24T08:47:21.796Z,29.14
2017-05-24T08:48:32.170Z,29.01
2017-05-24T08:49:42.542Z,28.95
2017-05-24T08:50:52.284Z,28.85
2017-05-24T08:52:02.632Z,28.65
2017-05-24T08:53:12.701Z,28.78
2017-05-24T08:54:23.064Z,28.91
2017-05-24T08:55:33.441Z,28.86
2017-05-24T08:56:43.200Z,28.97
2017-05-24T08:57:53.645Z,29.01
2017-05-24T08:59:03.699Z,28.97
2017-05-24T09:00:13.739Z,28.98
2017-05-24T09:01:23.802Z,28.97
2017-05-24T09:02:33.865Z,28.73
2017-05-24T09:03:43.994Z,28.91
2017-05-24T09:04:54.360Z,28.88
2017-05-24T09:06:04.737Z,29.1
2017-05-24T09:07:15.092Z,29.14
2017-05-24T09:08:25.524Z,29.11
2017-05-24T09:09:35.942Z,29.17
2017-05-24T09:10:45.995Z,29.35
2017-05-24T09:11:56.028Z,29.47
2017-05-24T09:13:06.415Z,29.45
2017-05-24T09:14:16.490Z,29.58
2017-05-24T09:15:26.902Z,29.43
2017-05-24T09:16:37.277Z,29.36
2017-05-24T09:17:47.645Z,29.35
2017-05-24T09:18:58.021Z,29.35
2017-05-24T09:20:08.392Z,29.65
2017-05-24T09:21:18.793Z,29.69
2017-05-24T09:22:29.374Z,29.63
2017-05-24T09:23:39.748Z,29.63
2017-05-24T09:24:50.138Z,29.47
2017-05-24T09:26:00.543Z,29.52
2017-05-24T09:27:10.591Z,29.73
2017-05-24T09:28:20.945Z,30.11
2017-05-24T09:29:31.497Z,30.1
2017-05-24T09:30:41.862Z,30.07
2017-05-24T09:31:52.217Z,29.94
2017-05-24T09:33:02.619Z,29.97
2017-05-24T09:34:12.676Z,29.75
2017-05-24T09:35:23.029Z,29.63
2017-05-24T09:36:33.394Z,29.67
2017-05-24T09:37:43.454Z,29.69
2017-05-24T09:38:53.822Z,29.73
2017-05-24T09:40:03.882Z,29.73
2017-05-24T09:41:13.938Z,29.81
2017-05-24T09:42:24.284Z,29.89
2017-05-24T09:43:34.631Z,29.89
2017-05-24T09:44:45.034Z,29.98
2017-05-24T09:45:55.080Z,30.14
2017-05-24T09:47:05.445Z,30.57
2017-05-24T09:48:15.496Z,30.99
2017-05-24T09:49:25.935Z,31.08
2017-05-24T09:50:36.361Z,31.13
2017-05-24T09:51:46.739Z,31.01
2017-05-24T09:52:57.093Z,31.13
2017-05-24T09:54:07.461Z,31
2017-05-24T09:55:17.840Z,30.82
2017-05-24T09:56:28.248Z,30.79
2017-05-24T09:57:38.627Z,30.88
2017-05-24T09:58:48.996Z,30.69
2017-05-24T09:59:59.352Z,30.28
2017-05-24T10:01:09.400Z,30.04
2017-05-24T10:02:34.401Z,29.89
2017-05-24T10:03:44.441Z,30.04
2017-05-24T10:04:54.190Z,30.11
2017-05-24T10:06:04.240Z,30.49
2017-05-24T10:07:14.286Z,30.71
2017-05-24T10:08:24.339Z,31.01
2017-05-24T10:09:34.759Z,31.16
2017-05-24T10:10:45.177Z,31.49
2017-05-24T10:11:54.938Z,31.43
2017-05-24T10:13:05.301Z,31.08
2017-05-24T10:14:15.371Z,30.66
2017-05-24T10:15:25.735Z,30.22
2017-05-24T10:16:35.519Z,29.95
2017-05-24T10:17:45.896Z,29.52
2017-05-24T10:18:55.959Z,29.23
2017-05-24T10:20:06.018Z,28.83
2017-05-24T10:21:16.079Z,28.27
2017-05-24T10:22:26.486Z,27.72
2017-05-24T10:23:36.911Z,27.09
2017-05-24T10:24:47.258Z,26.72
2017-05-24T10:25:57.640Z,26.35
2017-05-24T10:27:08.008Z,25.93
2017-05-24T10:28:18.146Z,25.37
2017-05-24T10:29:28.537Z,24.61
2017-05-24T10:30:38.937Z,23.96
2017-05-24T10:31:49.002Z,23.32
2017-05-24T10:32:59.380Z,22.78
2017-05-24T10:34:09.790Z,22.29
2017-05-24T10:35:20.182Z,21.85
2017-05-24T10:36:30.575Z,21.46
2017-05-24T10:37:40.637Z,21.19
2017-05-24T10:38:51.016Z,20.96
2017-05-24T10:40:01.437Z,20.94
2017-05-24T10:41:11.834Z,20.93
2017-05-24T10:42:22.204Z,20.93
2017-05-24T10:43:32.572Z,21.19
2017-05-24T10:44:42.660Z,21.4
2017-05-24T10:45:53.119Z,21.49
2017-05-24T10:47:03.668Z,21.52
2017-05-24T10:48:13.363Z,21.58
2017-05-24T10:49:23.367Z,21.67
2017-05-24T10:50:34.068Z,21.89
2017-05-24T10:51:44.487Z,22.18
2017-05-24T10:52:54.872Z,22.51
2017-05-24T10:54:05.253Z,22.88
2017-05-24T10:55:15.308Z,23.22
2017-05-24T10:56:25.654Z,23.55
2017-05-24T10:57:36.348Z,23.78
2017-05-24T10:58:46.727Z,23.82
2017-05-24T10:59:57.349Z,23.87
2017-05-24T11:01:07.096Z,24.03
2017-05-24T11:02:17.452Z,24.15
2017-05-24T11:03:27.865Z,24.4
2017-05-24T11:04:37.609Z,24.63
2017-05-24T11:05:47.990Z,24.71
2017-05-24T11:06:58.362Z,25
2017-05-24T11:08:08.757Z,25.14
2017-05-24T11:09:18.861Z,25.26
2017-05-24T11:10:28.909Z,25.15
2017-05-24T11:11:38.954Z,25.04
2017-05-24T11:12:49.321Z,24.94
2017-05-24T11:13:59.706Z,25.07
2017-05-24T11:15:10.153Z,25.17
2017-05-24T11:16:20.533Z,25.14
2017-05-24T11:17:30.891Z,25.22
2017-05-24T11:18:41.320Z,25.23
2017-05-24T11:19:51.382Z,25.11
2017-05-24T11:21:02.013Z,25.2
2017-05-24T11:22:11.765Z,25.34
2017-05-24T11:23:22.137Z,25.62
2017-05-24T11:24:32.236Z,25.84
2017-05-24T11:25:42.664Z,25.93
2017-05-24T11:26:53.067Z,25.97
2017-05-24T11:28:03.439Z,26.2
2017-05-24T11:29:13.802Z,26.24
2017-05-24T11:30:24.162Z,26.3
2017-05-24T11:31:34.524Z,26.31
2017-05-24T11:32:44.940Z,26.17
2017-05-24T11:33:55.318Z,25.96
2017-05-24T11:35:05.695Z,25.57
2017-05-24T11:36:15.745Z,25.14
2017-05-24T11:37:26.145Z,24.83
2017-05-24T11:38:36.235Z,24.69
2017-05-24T11:39:46.582Z,24.54
2017-05-24T11:40:56.622Z,24.52
2017-05-24T11:42:06.957Z,24.46
2017-05-24T11:43:17.333Z,24.54
2017-05-24T11:44:27.383Z,24.74
2017-05-24T11:45:37.747Z,25.02
2017-05-24T11:46:47.498Z,25.26
2017-05-24T11:47:57.862Z,25.41
2017-05-24T11:49:08.224Z,25.54
2017-05-24T11:50:18.641Z,25.63
2017-05-24T11:51:28.997Z,25.85
2017-05-24T11:52:39.376Z,26.15
2017-05-24T11:53:49.751Z,26.16
2017-05-24T11:55:00.223Z,26
2017-05-24T11:56:10.277Z,25.88
2017-05-24T11:57:20.664Z,25.88
2017-05-24T11:58:31.030Z,26
2017-05-24T11:59:41.080Z,26.17
2017-05-24T12:00:51.464Z,26.44
2017-05-24T12:02:01.893Z,26.81
2017-05-24T12:03:12.252Z,26.9
2017-05-24T12:04:22.622Z,27.04
2017-05-24T12:05:32.983Z,27.31
2017-05-24T12:06:43.339Z,27.52
2017-05-24T12:07:53.537Z,27.87
2017-05-24T12:09:03.897Z,27.87
2017-05-24T12:10:14.284Z,27.91
2017-05-24T12:11:24.329Z,27.99
2017-05-24T12:12:34.701Z,28.11
2017-05-24T12:13:44.796Z,28.21
2017-05-24T12:14:54.847Z,28.2
2017-05-24T12:16:04.580Z,28.17
2017-05-24T12:17:14.641Z,28.18
2017-05-24T12:18:24.721Z,28.08
2017-05-24T12:19:35.146Z,28.03
2017-05-24T12:20:45.523Z,27.93
2017-05-24T12:21:55.578Z,27.98
2017-05-24T12:23:05.950Z,28.03
2017-05-24T12:24:16.368Z,28.18
2017-05-24T12:25:26.789Z,28.64
2017-05-24T12:26:37.149Z,28.83
2017-05-24T12:27:46.901Z,29.03
2017-05-24T12:28:57.283Z,29.45
2017-05-24T12:30:07.331Z,29.55
2017-05-24T12:31:17.421Z,29.5
2017-05-24T12:32:27.790Z,29.72
2017-05-24T12:33:38.150Z,30.09
2017-05-24T12:34:48.533Z,30.21
2017-05-24T12:35:58.876Z,30.03
2017-05-24T12:37:08.702Z,29.79
2017-05-24T12:38:19.083Z,30.1
2017-05-24T12:39:29.483Z,30.19
2017-05-24T12:40:39.918Z,30.09
2017-05-24T12:41:49.997Z,30.11
2017-05-24T12:43:00.453Z,30.31
2017-05-24T12:44:10.820Z,30.29
2017-05-24T12:45:21.187Z,30.18
2017-05-24T12:46:31.237Z,29.92
2017-05-24T12:47:41.297Z,29.47
2017-05-24T12:48:51.714Z,29.21
2017-05-24T12:50:02.102Z,28.91
2017-05-24T12:51:12.459Z,28.7
2017-05-24T12:52:22.820Z,28.3
2017-05-24T12:53:33.175Z,28.43
2017-05-24T12:54:43.589Z,28.31
2017-05-24T12:55:53.961Z,28.05
2017-05-24T12:57:04.321Z,28.11
2017-05-24T12:58:14.382Z,28.2
2017-05-24T12:59:24.433Z,28.3
2017-05-24T13:00:34.520Z,28.01
2017-05-24T13:01:44.561Z,28.35
2017-05-24T13:02:54.630Z,28.49
2017-05-24T13:04:04.676Z,28.67
2017-05-24T13:05:14.761Z,28.79
2017-05-24T13:06:25.189Z,28.88
2017-05-24T13:07:35.552Z,28.9
2017-05-24T13:08:45.593Z,28.85
2017-05-24T13:09:55.971Z,28.9
2017-05-24T13:11:06.343Z,28.98
2017-05-24T13:12:16.757Z,29.02
2017-05-24T13:13:26.815Z,29.01
2017-05-24T13:14:36.875Z,28.91
2017-05-24T13:15:46.932Z,28.92
2017-05-24T13:16:57.286Z,28.94
2017-05-24T13:18:07.719Z,29.01
2017-05-24T13:19:18.086Z,29.1
2017-05-24T13:20:28.459Z,29.11
2017-05-24T13:21:38.808Z,28.85
2017-05-24T13:22:49.168Z,29.06
2017-05-24T13:23:59.582Z,29.06
2017-05-24T13:25:09.954Z,28.97
2017-05-24T13:26:20.341Z,29.08
2017-05-24T13:27:30.706Z,29.3
2017-05-24T13:28:40.797Z,29.45
2017-05-24T13:29:51.213Z,29.58
2017-05-24T13:31:01.582Z,29.85
2017-05-24T13:32:11.937Z,29.87
2017-05-24T13:33:21.683Z,29.94
2017-05-24T13:34:32.051Z,29.51
2017-05-24T13:35:42.460Z,29.23
2017-05-24T13:36:52.830Z,28.92
2017-05-24T13:38:03.202Z,28.65
2017-05-24T13:39:13.609Z,28.53
2017-05-24T13:40:23.974Z,28.42
2017-05-24T13:41:34.094Z,28.53
2017-05-24T13:42:44.144Z,28.68
2017-05-24T13:43:54.511Z,28.39
2017-05-24T13:45:04.570Z,28.21
2017-05-24T13:46:14.937Z,28.14
2017-05-24T13:47:25.333Z,28.31
2017-05-24T13:48:35.714Z,28.33
2017-05-24T13:49:45.790Z,28.55
2017-05-24T13:50:56.178Z,28.8
2017-05-24T13:52:06.547Z,28.86
2017-05-24T13:53:16.955Z,28.83
2017-05-24T13:54:27.344Z,28.61
2017-05-24T13:55:37.412Z,28.65
2017-05-24T13:56:47.173Z,28.64
2017-05-24T13:57:57.559Z,28.7
2017-05-24T13:59:07.972Z,28.82
2017-05-24T14:00:18.338Z,28.82
2017-05-24T14:01:28.701Z,28.82
2017-05-24T14:02:39.071Z,28.75
2017-05-24T14:03:49.145Z,29.11
2017-05-24T14:04:59.576Z,29.2
2017-05-24T14:06:09.625Z,29.43
2017-05-24T14:07:19.995Z,29.42
2017-05-24T14:08:30.347Z,29.21
2017-05-24T14:09:40.730Z,29.23
2017-05-24T14:10:51.155Z,28.91
2017-05-24T14:12:01.214Z,28.53
2017-05-24T14:13:11.580Z,28.55
2017-05-24T14:14:21.956Z,28.65
2017-05-24T14:15:32.002Z,28.68
2017-05-24T14:16:42.371Z,28.65
2017-05-24T14:17:52.751Z,28.7
2017-05-24T14:19:03.127Z,28.7
2017-05-24T14:20:13.491Z,28.46
2017-05-24T14:21:23.919Z,28.24
2017-05-24T14:22:34.376Z,27.87
2017-05-24T14:23:44.465Z,27.89
2017-05-24T14:24:54.831Z,27.59
2017-05-24T14:26:05.237Z,27.43
2017-05-24T14:27:15.600Z,27.18
2017-05-24T14:28:25.727Z,27.21
2017-05-24T14:29:36.072Z,27.48
2017-05-24T14:30:46.458Z,27.52
2017-05-24T14:31:56.539Z,27.69
2017-05-24T14:33:06.643Z,27.49
2017-05-24T14:34:17.082Z,27.68
2017-05-24T14:35:27.441Z,27.87
2017-05-24T14:36:37.495Z,28.03
2017-05-24T14:37:47.854Z,28.05
2017-05-24T14:38:57.922Z,28.17
2017-05-24T14:40:08.325Z,28.18
2017-05-24T14:41:18.714Z,28.27
2017-05-24T14:42:29.115Z,28.26
2017-05-24T14:43:39.479Z,28.35
2017-05-24T14:44:49.822Z,28.21
2017-05-24T14:46:00.232Z,28.11
2017-05-24T14:47:10.800Z,28.02
2017-05-24T14:48:21.171Z,28.02
2017-05-24T14:49:31.542Z,27.94
2017-05-24T14:50:41.933Z,27.9
2017-05-24T14:51:51.682Z,27.83
2017-05-24T14:53:02.054Z,27.65
2017-05-24T14:54:12.416Z,27.11
2017-05-24T14:55:22.814Z,26.96
2017-05-24T14:56:33.165Z,27.01
2017-05-24T14:57:43.265Z,27.13
2017-05-24T14:58:53.323Z,27.21
2017-05-24T15:00:03.364Z,27.24
2017-05-24T15:01:13.742Z,26.97
2017-05-24T15:02:24.121Z,26.63
2017-05-24T15:03:34.216Z,26.57
2017-05-24T15:04:44.610Z,26.47
2017-05-24T15:05:54.980Z,26.42
2017-05-24T15:07:05.626Z,26.78
2017-05-24T15:08:15.356Z,27.05
2017-05-24T15:09:25.397Z,27.16
2017-05-24T15:10:35.759Z,27
2017-05-24T15:11:46.134Z,26.97
2017-05-24T15:12:56.506Z,27.05
2017-05-24T15:14:06.932Z,26.91
2017-05-24T15:15:17.358Z,26.76
2017-05-24T15:16:27.421Z,26.5
2017-05-24T15:17:37.786Z,26.38
2017-05-24T15:18:48.182Z,26.49
2017-05-24T15:19:58.560Z,26.5
2017-05-24T15:21:08.932Z,26.42
2017-05-24T15:22:19.304Z,26.15
2017-05-24T15:23:29.669Z,25.93
2017-05-24T15:24:40.034Z,25.86
2017-05-24T15:25:50.401Z,25.94
2017-05-24T15:27:00.816Z,25.94
2017-05-24T15:28:11.192Z,25.85
2017-05-24T15:29:21.568Z,25.88
2017-05-24T15:30:31.317Z,25.7
2017-05-24T15:31:41.378Z,25.76
2017-05-24T15:32:51.812Z,25.69
2017-05-24T15:34:02.199Z,25.63
2017-05-24T15:35:12.577Z,25.91
2017-05-24T15:36:22.965Z,26.31
2017-05-24T15:37:33.335Z,26.57
2017-05-24T15:38:43.443Z,26.6
2017-05-24T15:39:53.809Z,26.56